Red Fish — WDF3926 — position and weather

sailwx.info

Track history (hours):
 
Tides and Currents Weather Stations Pressure Air Temp Water Temp Dewpoint Dewpoint Depression Visibility Wind Speed Wind Dir Waves Ship Positions

Red Fish

Owner: Higman Barge Lines, Inc 1980 Post Oak Blvd., Suite 1101 Houston, Texas 77056, Orange, TX. More information available from US FCC via Universal Licensing System and Coast Guard Vessel Documentation Center.

Last reported at 2017-Apr-29 09:37 UTC. Time now 2017-Apr-29 15:42 UTC.
Position N 29°54' W 092°30'.

Length 26 m; draft 2.9 m.

Type: Towing. MMSI: 367445690.

Date/timePositionNaut miles runAvg speedWind from/ knotsBaromVisibWave heightAir tempDewpointWater temp
2017-Apr-29 09:37N 29°54' W 092°30'1 6.1
2017-Apr-29 09:30N 29°54' W 092°29'2 3.7
2017-Apr-29 09:00N 29°54' W 092°27'3 5.1
2017-Apr-29 08:30N 29°53' W 092°24'3 5.0
2017-Apr-29 08:00N 29°52' W 092°22'2 4.3
2017-Apr-29 07:30N 29°51' W 092°20'0 0.1
2017-Apr-29 07:00N 29°51' W 092°20'0 0.5
2017-Apr-29 06:30N 29°51' W 092°20'2 4.3
2017-Apr-29 06:00N 29°50' W 092°18'3 6.0
2017-Apr-29 05:30N 29°48' W 092°15'2 4.5
2017-Apr-29 05:00N 29°47' W 092°12'1 2.0
2017-Apr-29 04:30N 29°47' W 092°11'0 0.7
2017-Apr-29 04:00N 29°47' W 092°11'2 3.2
2017-Apr-29 03:30N 29°47' W 092°09'1 2.4
2017-Apr-29 03:00N 29°47' W 092°08'0 0.0
2017-Apr-29 02:30N 29°47' W 092°08'0 0.0
2017-Apr-29 02:00N 29°47' W 092°08'0 0.0
2017-Apr-29 01:30N 29°47' W 092°08'0 0.0
2017-Apr-29 01:00N 29°47' W 092°08'0 0.0
2017-Apr-29 00:30N 29°47' W 092°08'0 0.0
2017-Apr-29 00:00N 29°47' W 092°08'0 0.1
2017-Apr-28 23:30N 29°47' W 092°08'0 0.0
2017-Apr-28 23:00N 29°47' W 092°08'2 4.9
2017-Apr-28 22:30N 29°48' W 092°05'2 3.8
2017-Apr-28 22:00N 29°49' W 092°03'3 6.5
2017-Apr-28 21:30N 29°50' W 091°60'3 5.2
2017-Apr-28 20:57N 29°51' W 091°56'  
Track history (hours):
 
Tides and Currents Weather Stations Pressure Air Temp Water Temp Dewpoint Dewpoint Depression Visibility Wind Speed Wind Dir Waves Ship Positions

Red Fish

Owner: Higman Barge Lines, Inc 1980 Post Oak Blvd., Suite 1101 Houston, Texas 77056, Orange, TX. More information available from US FCC via Universal Licensing System and Coast Guard Vessel Documentation Center.

Last reported at 2017-Apr-29 09:37 UTC. Time now 2017-Apr-29 15:42 UTC.
Position N 29°54' W 092°30'.

Length 26 m; draft 2.9 m.

Type: Towing. MMSI: 367445690.

Date/timePositionNaut miles runAvg speedWind from/ knotsBaromVisibWave heightAir tempDewpointWater temp
2017-Apr-29 09:37N 29°54' W 092°30'1 6.1
2017-Apr-29 09:30N 29°54' W 092°29'2 3.7
2017-Apr-29 09:00N 29°54' W 092°27'3 5.1
2017-Apr-29 08:30N 29°53' W 092°24'3 5.0
2017-Apr-29 08:00N 29°52' W 092°22'2 4.3
2017-Apr-29 07:30N 29°51' W 092°20'0 0.1
2017-Apr-29 07:00N 29°51' W 092°20'0 0.5
2017-Apr-29 06:30N 29°51' W 092°20'2 4.3
2017-Apr-29 06:00N 29°50' W 092°18'3 6.0
2017-Apr-29 05:30N 29°48' W 092°15'2 4.5
2017-Apr-29 05:00N 29°47' W 092°12'1 2.0
2017-Apr-29 04:30N 29°47' W 092°11'0 0.7
2017-Apr-29 04:00N 29°47' W 092°11'2 3.2
2017-Apr-29 03:30N 29°47' W 092°09'1 2.4
2017-Apr-29 03:00N 29°47' W 092°08'0 0.0
2017-Apr-29 02:30N 29°47' W 092°08'0 0.0
2017-Apr-29 02:00N 29°47' W 092°08'0 0.0
2017-Apr-29 01:30N 29°47' W 092°08'0 0.0
2017-Apr-29 01:00N 29°47' W 092°08'0 0.0
2017-Apr-29 00:30N 29°47' W 092°08'0 0.0
2017-Apr-29 00:00N 29°47' W 092°08'0 0.1
2017-Apr-28 23:30N 29°47' W 092°08'0 0.0
2017-Apr-28 23:00N 29°47' W 092°08'2 4.9
2017-Apr-28 22:30N 29°48' W 092°05'2 3.8
2017-Apr-28 22:00N 29°49' W 092°03'3 6.5
2017-Apr-28 21:30N 29°50' W 091°60'3 5.2
2017-Apr-28 20:57N 29°51' W 091°56'  

Dump ship's entire track history